Time;durP1;ratioP1;P1;durP2;ratioP2;P2;SDS_P1;SDS_P2;PMS_P1;PMS_P2;Temp;Humidity;BMP_temperature;BMP_pressure;BME280_temperature;BME280_humidity;BME280_pressure;Samples;Min_cycle;Max_cycle;Signal;HPM_P1;HPM_P2
2023/03/01 00:04:39;;;;;;;48.42;30.25;;;;;;;-3.27;93.46;101310.75;10502942;28;20032;-72
2023/03/01 00:09:41;;;;;;;61.40;33.53;;;;;;;-3.20;93.30;101320.47;10502784;28;20074;-72
2023/03/01 00:14:43;;;;;;;58.38;32.42;;;;;;;-3.39;93.63;101299.91;10503495;28;20044;-72
2023/03/01 00:19:44;;;;;;;55.05;31.90;;;;;;;-3.22;92.95;101313.53;10503735;28;20513;-72
2023/03/01 00:24:46;;;;;;;49.67;29.83;;;;;;;-3.26;92.63;101299.66;10502406;28;20044;-72
2023/03/01 00:29:47;;;;;;;52.33;30.25;;;;;;;-3.34;93.02;101306.13;10502643;28;20048;-72
2023/03/01 00:34:54;;;;;;;53.47;31.02;;;;;;;-3.53;93.77;101308.69;10502807;28;20392;-72
2023/03/01 00:39:55;;;;;;;47.13;31.50;;;;;;;-3.76;95.82;101307.63;10503443;28;20165;-72
2023/03/01 00:44:57;;;;;;;49.45;30.45;;;;;;;-3.71;95.14;101289.06;10500874;28;20056;-72
2023/03/01 00:49:59;;;;;;;55.80;30.90;;;;;;;-4.08;95.57;101284.75;10500339;28;20421;-72
2023/03/01 00:55:00;;;;;;;48.47;28.45;;;;;;;-4.20;96.35;101275.63;10482983;28;20044;-72
2023/03/01 01:00:05;;;;;;;49.08;29.30;;;;;;;-4.17;97.05;101275.75;10503378;28;20399;-72
2023/03/01 01:05:07;;;;;;;40.88;28.40;;;;;;;-4.08;97.23;101282.19;10502501;28;20041;-72
2023/03/01 01:10:12;;;;;;;51.10;29.70;;;;;;;-4.17;97.44;101280.88;10500749;28;20055;-72
2023/03/01 01:15:16;;;;;;;45.63;30.08;;;;;;;-4.16;97.90;101278.41;10482679;28;20045;-72
2023/03/01 01:20:18;;;;;;;45.20;28.80;;;;;;;-4.08;96.74;101278.75;10501252;28;20115;-72
2023/03/01 01:25:20;;;;;;;51.85;31.35;;;;;;;-3.95;95.83;101275.06;10498752;28;20063;-72
2023/03/01 01:30:21;;;;;;;42.72;29.20;;;;;;;-4.11;96.46;101276.06;10499709;28;20090;-72
2023/03/01 01:35:23;;;;;;;50.20;29.77;;;;;;;-4.17;96.48;101262.91;10498359;28;20131;-72
2023/03/01 01:40:25;;;;;;;54.15;31.77;;;;;;;-4.33;97.08;101254.50;10499799;28;20040;-72
2023/03/01 01:45:30;;;;;;;46.10;30.27;;;;;;;-4.40;98.07;101262.69;10500086;28;20070;-72
2023/03/01 01:50:38;;;;;;;51.97;30.15;;;;;;;-4.17;97.51;101256.09;10499745;28;20050;-72
2023/03/01 01:55:45;;;;;;;53.75;31.15;;;;;;;-4.04;94.73;101265.25;10482196;28;20127;-72
2023/03/01 02:00:47;;;;;;;53.57;32.73;;;;;;;-4.12;96.25;101254.63;10497426;28;20068;-71
2023/03/01 02:06:11;;;;;;;54.25;31.85;;;;;;;-4.26;96.65;101260.78;10499558;28;20080;-71
2023/03/01 02:11:17;;;;;;;50.50;30.45;;;;;;;-4.21;96.47;101249.03;10497030;28;20048;-71
2023/03/01 02:16:19;;;;;;;54.05;31.50;;;;;;;-4.43;97.57;101251.41;10497063;28;20044;-72
2023/03/01 02:21:44;;;;;;;56.78;31.88;;;;;;;-4.22;97.25;101229.31;10497220;28;20441;-72
2023/03/01 02:26:49;;;;;;;53.95;32.08;;;;;;;-4.36;96.49;101231.25;10498541;28;20060;-72
2023/03/01 02:31:56;;;;;;;54.13;32.08;;;;;;;-4.38;97.40;101216.59;10498854;28;20060;-71
2023/03/01 02:37:04;;;;;;;54.78;32.42;;;;;;;-4.65;97.47;101209.34;10497076;28;20072;-71
2023/03/01 02:42:06;;;;;;;47.33;30.35;;;;;;;-4.85;99.63;101225.44;10496740;28;20040;-71
2023/03/01 02:47:08;;;;;;;48.20;29.73;;;;;;;-4.88;100.00;101213.31;10499455;28;20066;-71
2023/03/01 02:52:28;;;;;;;55.63;32.03;;;;;;;-4.88;100.00;101215.00;10505752;22;20394;-70
2023/03/01 02:57:32;;;;;;;57.20;31.60;;;;;;;-4.46;99.20;101213.66;10456950;28;20041;-70
2023/03/01 03:02:35;;;;;;;55.33;31.33;;;;;;;-4.61;97.72;101206.09;10456969;28;20045;-71
2023/03/01 03:07:55;;;;;;;50.03;30.33;;;;;;;-4.83;99.08;101200.72;10455860;28;20481;-70
2023/03/01 03:13:00;;;;;;;47.92;29.65;;;;;;;-5.03;99.78;101204.88;10457694;28;20041;-70
2023/03/01 03:18:04;;;;;;;48.40;31.38;;;;;;;-5.02;100.00;101206.66;10443189;28;20506;-70
2023/03/01 03:23:06;;;;;;;54.85;31.88;;;;;;;-4.92;100.00;101201.16;10464545;28;20036;-70
2023/03/01 03:28:11;;;;;;;51.47;31.23;;;;;;;-4.61;97.15;101195.81;10464567;28;20047;-70
2023/03/01 03:33:13;;;;;;;50.38;29.70;;;;;;;-4.93;95.75;101193.41;10463490;28;20045;-70
2023/03/01 03:38:18;;;;;;;52.85;30.25;;;;;;;-5.22;97.60;101208.22;10466024;28;20067;-70
2023/03/01 03:43:22;;;;;;;54.97;31.65;;;;;;;-4.86;98.60;101191.22;10465817;28;20048;-70
2023/03/01 03:48:25;;;;;;;54.95;30.40;;;;;;;-4.97;97.05;101192.38;10466365;28;20110;-71
2023/03/01 03:53:28;;;;;;;55.95;31.05;;;;;;;-4.78;95.60;101190.69;10464239;28;20041;-70
2023/03/01 03:58:30;;;;;;;58.90;32.53;;;;;;;-4.92;96.44;101179.75;10463203;28;20382;-71
2023/03/01 04:03:32;;;;;;;57.40;31.88;;;;;;;-5.07;97.97;101192.72;10463548;28;20470;-70
2023/03/01 04:08:34;;;;;;;57.30;33.97;;;;;;;-5.23;99.58;101192.75;10461773;28;20056;-70
2023/03/01 04:13:36;;;;;;;52.78;30.83;;;;;;;-5.44;100.00;101205.38;10462532;28;20494;-70
2023/03/01 04:18:38;;;;;;;57.05;32.35;;;;;;;-5.32;100.00;101198.28;10462341;28;20048;-70
2023/03/01 04:23:40;;;;;;;49.50;30.50;;;;;;;-5.24;99.37;101197.00;10461702;28;20033;-70
2023/03/01 04:28:44;;;;;;;56.15;32.78;;;;;;;-5.06;98.12;101194.47;10461434;28;20041;-70
2023/03/01 04:33:51;;;;;;;55.28;31.35;;;;;;;-5.49;98.62;101188.88;10461328;28;20066;-70
2023/03/01 04:38:53;;;;;;;50.03;31.50;;;;;;;-5.61;100.00;101192.56;10462389;28;20044;-70
2023/03/01 04:43:55;;;;;;;58.60;33.60;;;;;;;-5.48;100.00;101188.97;10461001;28;20099;-71
2023/03/01 04:48:57;;;;;;;64.38;31.75;;;;;;;-4.93;98.17;101190.84;10461652;28;20048;-71
2023/03/01 04:54:00;;;;;;;57.72;32.75;;;;;;;-5.26;97.23;101188.38;10459429;28;20053;-70
2023/03/01 04:59:05;;;;;;;53.67;30.75;;;;;;;-5.55;99.10;101206.50;10461637;28;20506;-71
2023/03/01 05:04:12;;;;;;;61.63;32.53;;;;;;;-5.69;100.00;101198.97;10461432;28;20068;-71
2023/03/01 05:09:14;;;;;;;;;;;;;;;-5.70;100.00;101199.78;10443369;28;20041;-72
2023/03/01 05:14:16;;;;;;;54.85;30.77;;;;;;;-5.26;100.00;101195.19;10459863;28;19928;-72
2023/03/01 05:19:22;;;;;;;57.38;32.67;;;;;;;-5.23;97.32;101180.81;10459975;28;20045;-72
2023/03/01 05:24:24;;;;;;;63.90;31.77;;;;;;;-5.21;97.93;101181.78;10460758;28;20047;-72
2023/03/01 05:29:28;;;;;;;57.33;31.27;;;;;;;-5.61;98.25;101189.13;10460033;28;20048;-73
2023/03/01 05:34:32;;;;;;;53.28;31.85;;;;;;;-5.73;99.71;101188.50;10459133;28;20049;-73
2023/03/01 05:39:34;;;;;;;59.17;33.70;;;;;;;-5.26;99.05;101175.56;10458631;28;20143;-73
2023/03/01 05:44:36;;;;;;;62.70;33.88;;;;;;;-5.29;97.48;101174.50;10457308;28;20087;-73
2023/03/01 05:49:38;;;;;;;60.92;34.10;;;;;;;-5.21;97.95;101176.66;10457469;28;20051;-73
2023/03/01 05:54:40;;;;;;;59.95;32.38;;;;;;;-5.36;98.06;101174.22;10457271;28;20049;-73
2023/03/01 05:59:42;;;;;;;59.33;34.08;;;;;;;-5.33;99.31;101182.03;10458483;28;20049;-73
2023/03/01 06:04:43;;;;;;;61.50;33.40;;;;;;;-5.57;99.61;101190.19;10459724;28;20103;-73
2023/03/01 06:09:45;;;;;;;65.07;35.38;;;;;;;-5.30;99.67;101186.44;10458514;28;20098;-73
2023/03/01 06:14:47;;;;;;;77.10;35.70;;;;;;;-5.41;100.00;101185.00;10457457;28;20037;-74
2023/03/01 06:19:49;;;;;;;63.17;35.05;;;;;;;-5.40;100.00;101186.78;10456733;28;20109;-74
2023/03/01 06:24:51;;;;;;;71.45;38.95;;;;;;;-5.05;100.00;101185.09;10458405;28;20055;-74
2023/03/01 06:29:52;;;;;;;74.95;37.05;;;;;;;-4.62;100.00;101194.06;10457675;28;20384;-73
2023/03/01 06:34:54;;;;;;;58.92;35.65;;;;;;;-3.87;100.00;101196.69;10458991;28;20041;-72
2023/03/01 06:39:56;;;;;;;45.60;29.95;;;;;;;-2.53;97.84;101197.22;10460173;28;20482;-73
2023/03/01 06:44:58;;;;;;;34.90;26.95;;;;;;;-1.07;87.38;101203.44;10460296;28;20041;-73
2023/03/01 06:50:02;;;;;;;27.17;23.23;;;;;;;-0.84;82.33;101196.50;10457205;28;20044;-73
2023/03/01 06:55:04;;;;;;;25.92;22.52;;;;;;;-0.33;71.60;101211.00;10462486;28;20048;-73
2023/03/01 07:00:07;;;;;;;28.60;22.10;;;;;;;-0.11;68.50;101209.97;10466087;28;20049;-74
2023/03/01 07:05:09;;;;;;;30.77;23.80;;;;;;;-0.29;67.66;101206.00;10466867;28;20041;-74
2023/03/01 07:10:12;;;;;;;26.77;23.15;;;;;;;-0.50;68.64;101194.97;10465222;28;20055;-74
2023/03/01 07:15:15;;;;;;;32.53;24.25;;;;;;;-1.12;69.75;101194.69;10465991;28;20037;-73
2023/03/01 07:20:25;;;;;;;34.63;26.73;;;;;;;-2.24;77.04;101202.63;10465205;28;20094;-73
2023/03/01 07:25:27;;;;;;;48.63;28.23;;;;;;;-2.50;80.94;101193.91;10465767;28;20490;-72
2023/03/01 07:30:29;;;;;;;39.60;28.02;;;;;;;-2.45;82.31;101186.34;10464058;28;20417;-73
2023/03/01 07:35:33;;;;;;;42.97;29.25;;;;;;;-2.65;83.27;101183.00;10463612;28;20087;-73
2023/03/01 07:40:35;;;;;;;41.70;28.90;;;;;;;-2.47;84.79;101185.44;10465398;28;20091;-72
2023/03/01 07:45:38;;;;;;;48.25;29.35;;;;;;;-1.91;82.46;101173.81;10463605;28;20059;-73
2023/03/01 07:50:42;;;;;;;44.00;27.77;;;;;;;-1.95;80.31;101179.66;10452944;28;20045;-73
2023/03/01 07:55:43;;;;;;;34.95;26.40;;;;;;;-1.43;76.37;101178.97;10425987;28;20038;-73
2023/03/01 08:00:45;;;;;;;47.28;27.95;;;;;;;-2.10;79.85;101174.81;10445113;28;20037;-73
2023/03/01 08:05:47;;;;;;;43.75;28.33;;;;;;;-2.05;80.32;101163.88;10447574;28;20037;-73
2023/03/01 08:10:49;;;;;;;45.78;28.75;;;;;;;-1.42;76.38;101148.06;10463303;28;20415;-72
2023/03/01 08:15:52;;;;;;;41.75;28.73;;;;;;;-1.30;76.15;101145.03;10443628;28;20037;-73
2023/03/01 08:20:54;;;;;;;48.17;29.50;;;;;;;-1.70;77.67;101147.94;10420214;28;20049;-73
2023/03/01 08:26:07;;;;;;;53.67;29.17;;;;;;;-1.81;79.57;101147.56;10452511;28;20094;-72
2023/03/01 08:31:35;;;;;;;46.00;28.70;;;;;;;-1.38;77.74;101143.91;10462438;28;20041;-73
2023/03/01 08:36:59;;;;;;;57.13;31.42;;;;;;;-1.53;78.61;101147.69;10464391;28;20052;-73
2023/03/01 08:42:04;;;;;;;52.47;30.33;;;;;;;-1.25;76.66;101143.47;10440166;28;20041;-72
2023/03/01 08:47:06;;;;;;;48.92;29.67;;;;;;;-0.89;73.73;101145.53;10463622;28;20045;-73
2023/03/01 08:52:08;;;;;;;55.10;30.40;;;;;;;-0.37;73.07;101142.88;10461666;28;20379;-74
2023/03/01 08:57:10;;;;;;;45.45;29.30;;;;;;;-0.55;74.33;101135.44;10464476;28;20040;-76
2023/03/01 09:02:16;;;;;;;50.58;30.67;;;;;;;-0.66;75.10;101135.94;10464033;28;20041;-76
2023/03/01 09:07:21;;;;;;;50.47;28.95;;;;;;;-0.62;74.45;101130.94;10464591;28;20049;-77
2023/03/01 09:12:24;;;;;;;42.92;28.30;;;;;;;-0.48;74.57;101128.78;10462681;28;20075;-76
2023/03/01 09:17:28;;;;;;;46.33;30.38;;;;;;;-0.52;74.81;101124.34;10461006;28;20040;-76
2023/03/01 09:22:32;;;;;;;46.33;29.23;;;;;;;-0.55;74.54;101111.31;10460333;28;20045;-76
2023/03/01 09:27:34;;;;;;;48.53;30.35;;;;;;;-0.48;74.77;101102.94;10461830;28;20045;-76
2023/03/01 09:32:35;;;;;;;45.70;30.20;;;;;;;-0.19;74.69;101088.28;10454764;28;20391;-74
2023/03/01 09:37:38;;;;;;;43.97;29.63;;;;;;;0.03;73.30;101088.88;10441919;28;20040;-74
2023/03/01 09:42:48;;;;;;;40.15;28.77;;;;;;;0.16;71.76;101094.44;10437974;28;20060;-75
2023/03/01 09:47:54;;;;;;;49.05;29.90;;;;;;;0.25;70.19;101094.69;10452077;28;20041;-76
2023/03/01 09:53:09;;;;;;;40.33;28.58;;;;;;;0.18;71.40;101099.66;10457030;28;20045;-75
2023/03/01 09:58:29;;;;;;;36.40;28.20;;;;;;;0.34;70.20;101094.03;10458061;28;20055;-75
2023/03/01 10:03:36;;;;;;;45.10;28.23;;;;;;;0.67;70.33;101093.19;10458816;28;20076;-74
2023/03/01 10:09:02;;;;;;;39.55;27.67;;;;;;;0.92;68.72;101087.75;10459079;28;20044;-74
2023/03/01 10:14:27;;;;;;;43.28;26.55;;;;;;;1.02;68.10;101094.06;10458439;28;20487;-74
2023/03/01 10:19:43;;;;;;;42.67;27.85;;;;;;;1.50;66.08;101090.81;10457997;28;20452;-74
2023/03/01 10:24:46;;;;;;;32.60;24.80;;;;;;;1.85;64.17;101094.16;10456269;28;20061;-74
2023/03/01 10:30:00;;;;;;;42.33;27.48;;;;;;;2.22;63.49;101090.59;10457013;28;20056;-74
2023/03/01 10:35:17;;;;;;;32.65;25.08;;;;;;;2.72;61.70;101082.81;10457003;28;20091;-74
2023/03/01 10:40:19;;;;;;;30.20;24.33;;;;;;;2.99;61.72;101072.00;10457058;28;20095;-73
2023/03/01 10:45:30;;;;;;;33.80;23.83;;;;;;;3.24;60.18;101075.88;10456987;28;20041;-74
2023/03/01 10:50:32;;;;;;;30.67;23.73;;;;;;;3.98;57.29;101067.28;10456160;28;20047;-74
2023/03/01 10:55:35;;;;;;;26.70;23.70;;;;;;;4.18;57.90;101061.44;10457522;28;20040;-73
2023/03/01 11:01:06;;;;;;;26.17;21.65;;;;;;;4.62;56.47;101059.28;10455910;28;20049;-73
2023/03/01 11:06:10;;;;;;;33.90;23.52;;;;;;;4.97;53.69;101045.66;10453216;28;20059;-73
2023/03/01 11:11:16;;;;;;;24.60;22.10;;;;;;;5.07;53.18;101047.47;10457453;28;20094;-73
2023/03/01 11:16:25;;;;;;;25.58;22.92;;;;;;;4.70;54.84;101036.78;10457367;28;20041;-73
2023/03/01 11:21:31;;;;;;;23.52;20.02;;;;;;;5.42;53.30;101016.38;10457713;28;20037;-73
2023/03/01 11:26:38;;;;;;;24.38;20.55;;;;;;;5.38;50.05;101026.81;10456982;28;20067;-74
2023/03/01 11:31:41;;;;;;;25.58;20.33;;;;;;;5.95;51.41;101022.72;10456219;28;20036;-74
2023/03/01 11:37:01;;;;;;;28.13;19.48;;;;;;;6.40;49.08;101026.28;10455431;28;20453;-74
2023/03/01 11:42:15;;;;;;;19.15;17.20;;;;;;;6.38;48.13;101025.44;10462673;28;20041;-73
2023/03/01 11:47:26;;;;;;;20.08;18.38;;;;;;;6.51;46.73;101021.97;10463978;28;20039;-73
2023/03/01 11:52:42;;;;;;;19.40;17.45;;;;;;;5.99;48.24;101021.88;10462909;28;20036;-73
2023/03/01 11:58:07;;;;;;;16.40;14.73;;;;;;;6.31;47.00;101006.25;10462483;28;20052;-73
2023/03/01 12:03:35;;;;;;;16.77;15.27;;;;;;;6.19;44.87;101008.84;10457588;28;20044;-74
2023/03/01 12:08:51;;;;;;;14.93;13.20;;;;;;;6.05;46.09;100995.78;10417425;28;20063;-74
2023/03/01 12:13:59;;;;;;;12.37;11.30;;;;;;;6.05;43.26;100994.03;10419019;28;20529;-74
2023/03/01 12:19:38;;;;;;;12.82;11.65;;;;;;;6.04;41.06;100988.81;10418400;28;20658;-74
2023/03/01 12:25:01;;;;;;;12.90;11.80;;;;;;;5.95;42.70;100974.00;10384887;28;20052;-74
2023/03/01 12:30:30;;;;;;;12.65;11.55;;;;;;;5.71;41.75;100971.28;10416897;28;20458;-74
2023/03/01 12:35:31;;;;;;;12.90;11.60;;;;;;;5.34;44.70;100963.34;10400217;28;20057;-74
2023/03/01 12:40:48;;;;;;;13.75;12.07;;;;;;;5.13;44.79;100950.19;10416410;28;20058;-74
2023/03/01 12:46:05;;;;;;;15.82;13.38;;;;;;;4.83;44.84;100948.31;10455515;28;20107;-73
2023/03/01 12:51:10;;;;;;;;;;;;;;;4.55;44.93;100964.59;10460931;28;20449;-72
2023/03/01 12:56:17;;;;;;;15.90;14.30;;;;;;;4.42;46.72;100960.16;10461727;28;20378;-73
2023/03/01 13:01:26;;;;;;;;;;;;;;;4.37;48.33;100951.44;10461911;28;20537;-72
2023/03/01 13:06:37;;;;;;;19.42;17.50;;;;;;;4.43;48.89;100946.28;10463338;28;19921;-74
2023/03/01 13:11:44;;;;;;;21.40;16.80;;;;;;;4.48;49.44;100941.13;10461875;28;20064;-74
2023/03/01 13:16:49;;;;;;;19.02;17.23;;;;;;;4.37;49.16;100942.75;10465189;28;20045;-75
2023/03/01 13:21:56;;;;;;;18.17;16.67;;;;;;;4.12;50.11;100933.84;10462664;28;20081;-73
2023/03/01 13:27:07;;;;;;;;;;;;;;;4.25;49.20;100934.00;10462867;28;20069;-73
2023/03/01 13:32:24;;;;;;;16.60;15.07;;;;;;;4.28;48.07;100943.56;10461915;28;19920;-73
2023/03/01 13:37:44;;;;;;;16.40;14.85;;;;;;;4.32;46.26;100934.03;10461843;28;20037;-74
2023/03/01 13:42:55;;;;;;;16.98;15.43;;;;;;;4.39;46.97;100928.03;10461187;28;20503;-73
2023/03/01 13:48:11;;;;;;;18.17;16.30;;;;;;;4.39;47.60;100931.50;10461534;28;20449;-74
2023/03/01 13:53:19;;;;;;;17.25;15.57;;;;;;;4.22;48.63;100936.56;10459598;28;20079;-74
2023/03/01 13:58:28;;;;;;;20.27;16.13;;;;;;;4.38;48.03;100927.13;10459876;28;20040;-73
2023/03/01 14:03:31;;;;;;;15.43;14.13;;;;;;;4.48;46.97;100922.91;10457484;28;20538;-73
2023/03/01 14:08:36;;;;;;;17.75;16.00;;;;;;;4.66;46.77;100914.34;10458779;28;20052;-73
2023/03/01 14:14:03;;;;;;;15.20;13.82;;;;;;;4.66;45.58;100910.00;10447581;28;20040;-73
2023/03/01 14:19:21;;;;;;;18.60;16.80;;;;;;;4.38;47.54;100905.44;10494612;28;20044;-74
2023/03/01 14:24:38;;;;;;;17.17;15.65;;;;;;;4.40;47.69;100893.34;10432172;28;20044;-74
2023/03/01 14:29:40;;;;;;;20.20;15.52;;;;;;;4.58;48.20;100898.66;10432084;28;20049;-74
2023/03/01 14:34:47;;;;;;;18.05;16.25;;;;;;;4.45;46.65;100894.22;10458979;28;20048;-74
2023/03/01 14:39:50;;;;;;;17.65;16.00;;;;;;;4.64;46.19;100897.81;10459129;28;20091;-74
2023/03/01 14:44:53;;;;;;;17.55;15.68;;;;;;;4.54;45.17;100886.47;10458202;28;20082;-74
2023/03/01 14:50:01;;;;;;;21.63;16.65;;;;;;;4.62;46.59;100876.13;10420178;28;20052;-73
2023/03/01 14:55:07;;;;;;;19.13;17.10;;;;;;;4.53;46.80;100872.59;10417891;28;20041;-71
2023/03/01 15:00:17;;;;;;;18.40;16.65;;;;;;;4.47;47.24;100864.75;10416325;28;20054;-71
2023/03/01 15:05:26;;;;;;;17.70;15.93;;;;;;;4.41;47.21;100872.50;10417646;28;20460;-71
2023/03/01 15:10:34;;;;;;;17.27;15.75;;;;;;;4.55;47.80;100865.66;10416659;28;20050;-71
2023/03/01 15:15:41;;;;;;;19.38;16.40;;;;;;;4.45;48.58;100869.06;10421321;28;20053;-71
2023/03/01 15:20:43;;;;;;;19.40;17.50;;;;;;;4.57;48.60;100867.41;10425580;28;20060;-70
2023/03/01 15:25:45;;;;;;;18.40;16.50;;;;;;;4.63;49.15;100864.84;10426554;28;20041;-71
2023/03/01 15:30:55;;;;;;;18.00;16.27;;;;;;;4.51;49.58;100853.47;10423789;28;20045;-71
2023/03/01 15:35:59;;;;;;;17.20;15.65;;;;;;;4.41;49.62;100859.50;10425136;28;20069;-70
2023/03/01 15:41:22;;;;;;;17.63;16.00;;;;;;;4.49;49.70;100857.81;10423288;28;20041;-71
2023/03/01 15:46:37;;;;;;;17.42;15.70;;;;;;;4.54;49.78;100853.50;10423519;28;20049;-71
2023/03/01 15:51:39;;;;;;;16.50;14.85;;;;;;;4.46;49.23;100855.19;10443926;28;20568;-71
2023/03/01 15:56:41;;;;;;;15.20;13.80;;;;;;;4.49;49.14;100852.59;10430446;28;20145;-71
2023/03/01 16:01:43;;;;;;;22.77;16.10;;;;;;;4.45;49.36;100844.75;10465085;28;20387;-71
2023/03/01 16:06:45;;;;;;;17.27;15.68;;;;;;;4.46;48.78;100834.34;10444796;28;20041;-71
2023/03/01 16:11:47;;;;;;;17.05;15.45;;;;;;;4.18;49.72;100832.44;10422690;28;20049;-71
2023/03/01 16:16:49;;;;;;;16.85;15.23;;;;;;;3.88;50.68;100841.75;10423124;28;20044;-70
2023/03/01 16:21:51;;;;;;;17.50;15.80;;;;;;;3.80;50.79;100848.59;10426774;28;20049;-70
2023/03/01 16:26:53;;;;;;;14.50;13.00;;;;;;;3.96;50.82;100852.22;10462115;28;20068;-71
2023/03/01 16:31:55;;;;;;;15.40;13.57;;;;;;;3.76;51.49;100860.75;10462184;28;20049;-70
2023/03/01 16:36:56;;;;;;;16.05;14.75;;;;;;;3.53;51.92;100862.22;10461601;28;20095;-72
2023/03/01 16:42:00;;;;;;;16.70;15.20;;;;;;;3.34;52.45;100865.50;10461050;28;20052;-71
2023/03/01 16:47:02;;;;;;;15.07;13.57;;;;;;;3.17;52.90;100858.38;10462175;28;20045;-71
2023/03/01 16:52:03;;;;;;;25.05;19.20;;;;;;;3.51;52.06;100866.56;10460265;28;20094;-71
2023/03/01 16:57:05;;;;;;;16.42;14.82;;;;;;;3.09;53.23;100854.81;10461900;28;20463;-72
2023/03/01 17:02:12;;;;;;;21.00;15.50;;;;;;;2.92;53.70;100857.22;10460437;28;20068;-71
2023/03/01 17:07:14;;;;;;;16.38;14.77;;;;;;;2.83;55.31;100854.50;10460235;28;20047;-70
2023/03/01 17:12:16;;;;;;;23.05;15.63;;;;;;;2.77;60.98;100851.81;10432631;28;20041;-71
2023/03/01 17:17:18;;;;;;;19.15;17.15;;;;;;;2.47;62.58;100857.47;10421159;28;20088;-73
2023/03/01 17:22:20;;;;;;;22.17;18.10;;;;;;;2.05;64.14;100865.47;10419384;28;20056;-71
2023/03/01 17:27:22;;;;;;;28.27;20.80;;;;;;;2.13;65.48;100862.16;10402956;28;20132;-71
2023/03/01 17:32:26;;;;;;;35.63;18.00;;;;;;;2.02;64.67;100869.75;10420744;28;20403;-72
2023/03/01 17:37:28;;;;;;;34.08;18.58;;;;;;;1.95;62.62;100872.25;10420326;28;20076;-70
2023/03/01 17:42:30;;;;;;;33.88;18.38;;;;;;;1.70;63.84;100881.31;10402894;28;20046;-71
2023/03/01 17:47:32;;;;;;;25.13;17.30;;;;;;;1.40;65.50;100879.91;10457827;28;20049;-72
2023/03/01 17:52:33;;;;;;;51.67;27.95;;;;;;;1.43;67.12;100877.38;10459138;28;20041;-71
2023/03/01 17:57:39;;;;;;;45.60;25.10;;;;;;;1.34;66.59;100874.63;10457839;28;20037;-71
2023/03/01 18:02:41;;;;;;;38.67;23.23;;;;;;;1.36;68.90;100880.69;10458058;28;20059;-71
2023/03/01 18:07:43;;;;;;;44.10;26.23;;;;;;;1.25;68.58;100877.03;10458506;28;20465;-71
2023/03/01 18:12:45;;;;;;;46.92;27.10;;;;;;;0.79;70.71;100873.47;10459249;28;20055;-70
2023/03/01 18:17:47;;;;;;;40.28;25.10;;;;;;;0.65;72.54;100875.78;10458309;28;20045;-70
2023/03/01 18:22:51;;;;;;;36.55;24.48;;;;;;;0.40;74.07;100882.13;10459080;28;20045;-71
2023/03/01 18:27:53;;;;;;;44.08;28.27;;;;;;;0.72;73.00;100876.81;10459303;28;20046;-71
2023/03/01 18:32:55;;;;;;;46.95;26.08;;;;;;;0.57;72.58;100879.03;10459446;28;20049;-71
2023/03/01 18:37:57;;;;;;;42.90;26.23;;;;;;;0.44;73.51;100868.44;10457505;28;20110;-71
2023/03/01 18:42:59;;;;;;;75.13;34.30;;;;;;;0.38;73.82;100870.88;10460564;28;20045;-73
2023/03/01 18:48:01;;;;;;;60.95;32.35;;;;;;;0.11;74.89;100871.09;10460902;28;20049;-72
2023/03/01 18:53:03;;;;;;;74.53;35.10;;;;;;;-0.06;76.14;100874.97;10448295;28;20120;-71
2023/03/01 18:58:05;;;;;;;74.38;34.85;;;;;;;-0.17;77.51;100885.06;10448792;28;20046;-71
2023/03/01 19:03:06;;;;;;;67.82;34.63;;;;;;;-0.30;78.48;100867.50;10443578;28;20506;-70
2023/03/01 19:08:08;;;;;;;51.85;30.35;;;;;;;-0.29;79.24;100874.41;10482565;28;20506;-72
2023/03/01 19:13:10;;;;;;;53.65;30.80;;;;;;;-0.42;80.15;100873.22;10463898;28;20067;-71
2023/03/01 19:18:12;;;;;;;47.53;29.90;;;;;;;-0.51;79.97;100875.56;10463822;28;20044;-71
2023/03/01 19:23:13;;;;;;;49.47;27.70;;;;;;;-0.60;80.77;100872.75;10463364;28;20120;-71
2023/03/01 19:28:15;;;;;;;49.83;27.73;;;;;;;-0.58;81.36;100869.34;10464605;28;20063;-71
2023/03/01 19:33:17;;;;;;;42.30;25.63;;;;;;;-0.57;81.67;100873.69;10463868;28;20053;-72
2023/03/01 19:38:19;;;;;;;38.70;24.52;;;;;;;-0.30;78.49;100875.25;10463887;28;20048;-71
2023/03/01 19:43:22;;;;;;;25.42;22.35;;;;;;;-0.73;79.71;100870.66;10463954;28;20597;-71
2023/03/01 19:48:24;;;;;;;30.65;24.20;;;;;;;-0.95;80.80;100858.88;10463537;28;20045;-72
2023/03/01 19:53:26;;;;;;;28.73;21.88;;;;;;;-0.86;80.94;100859.13;10463012;28;20090;-72
2023/03/01 19:58:29;;;;;;;29.95;23.23;;;;;;;-0.81;81.00;100865.28;10462589;28;20053;-72
2023/03/01 20:03:35;;;;;;;41.67;21.88;;;;;;;-0.66;81.35;100881.19;10463555;28;20044;-72
2023/03/01 20:08:37;;;;;;;27.92;21.48;;;;;;;-0.84;81.28;100876.41;10463288;28;20106;-72
2023/03/01 20:13:41;;;;;;;30.33;21.52;;;;;;;-0.93;81.14;100881.31;10446607;28;20044;-71
2023/03/01 20:18:43;;;;;;;33.30;21.05;;;;;;;-0.85;79.88;100874.63;10462519;28;20068;-72
2023/03/01 20:23:46;;;;;;;30.42;19.65;;;;;;;-0.68;77.77;100882.84;10446691;28;20486;-71
2023/03/01 20:28:52;;;;;;;34.72;19.98;;;;;;;-0.66;76.93;100868.28;10462889;28;20049;-71
2023/03/01 20:33:56;;;;;;;22.13;18.38;;;;;;;-1.10;79.06;100864.47;10463736;28;20151;-72
2023/03/01 20:38:58;;;;;;;30.55;19.40;;;;;;;-0.84;77.59;100860.91;10462467;28;20083;-72
2023/03/01 20:44:00;;;;;;;24.83;19.17;;;;;;;-0.86;77.20;100854.81;10464214;28;20037;-71
2023/03/01 20:49:03;;;;;;;26.25;19.10;;;;;;;-0.86;77.27;100860.00;10463344;28;20045;-72
2023/03/01 20:54:05;;;;;;;26.25;20.15;;;;;;;-1.24;78.70;100851.16;10496035;22;20044;-75
2023/03/01 20:59:08;;;;;;;23.38;20.42;;;;;;;-1.02;78.57;100850.97;10547055;28;20588;-75
2023/03/01 21:04:10;;;;;;;29.70;18.17;;;;;;;-1.20;79.37;100855.56;10550257;28;20044;-74
2023/03/01 21:09:12;;;;;;;23.50;19.38;;;;;;;-1.41;80.47;100860.13;10546569;28;20040;-74
2023/03/01 21:14:13;;;;;;;22.98;18.42;;;;;;;-1.36;81.79;100849.13;10544626;28;20050;-72
2023/03/01 21:19:15;;;;;;;29.13;19.17;;;;;;;-1.37;81.31;100844.78;10546015;28;20078;-73
2023/03/01 21:24:17;;;;;;;29.02;18.55;;;;;;;-1.50;82.63;100842.69;10543706;28;20043;-74
2023/03/01 21:29:19;;;;;;;25.52;18.50;;;;;;;-1.56;83.03;100833.03;10543538;28;20501;-73
2023/03/01 21:34:21;;;;;;;34.47;19.13;;;;;;;-1.42;83.50;100836.03;10544619;28;20051;-72
2023/03/01 21:39:27;;;;;;;20.92;17.40;;;;;;;-1.58;82.67;100837.28;10544427;28;20032;-73
2023/03/01 21:44:30;;;;;;;25.37;18.00;;;;;;;-1.62;82.54;100840.59;10545966;28;20044;-74
2023/03/01 21:49:32;;;;;;;25.00;18.83;;;;;;;-1.74;83.52;100842.78;10542059;28;20089;-73
2023/03/01 21:54:33;;;;;;;26.50;18.55;;;;;;;-1.65;82.87;100837.03;10543179;28;20081;-74
2023/03/01 21:59:35;;;;;;;31.67;19.33;;;;;;;-1.68;83.38;100824.06;10543692;28;20078;-74
2023/03/01 22:04:37;;;;;;;32.33;19.52;;;;;;;-2.03;83.61;100824.75;10540970;28;20085;-74
2023/03/01 22:09:39;;;;;;;26.77;19.60;;;;;;;-1.66;84.14;100818.13;10544175;28;20087;-73
2023/03/01 22:14:42;;;;;;;26.08;20.98;;;;;;;-1.88;84.62;100803.72;10541971;28;20047;-73
2023/03/01 22:19:45;;;;;;;23.05;19.55;;;;;;;-1.99;85.07;100809.34;10540136;28;20058;-73
2023/03/01 22:24:46;;;;;;;29.63;20.92;;;;;;;-2.22;85.10;100811.22;10541444;28;20504;-73
2023/03/01 22:29:48;;;;;;;30.38;21.02;;;;;;;-1.99;85.97;100801.63;10540710;28;20048;-72
2023/03/01 22:34:50;;;;;;;29.98;21.77;;;;;;;-1.80;84.70;100799.69;10539754;28;20486;-72
2023/03/01 22:39:51;;;;;;;29.95;21.33;;;;;;;-2.22;86.05;100811.22;10539350;28;20036;-74
2023/03/01 22:44:53;;;;;;;29.08;20.27;;;;;;;-2.06;86.49;100814.31;10541892;28;20472;-74
2023/03/01 22:49:55;;;;;;;25.92;19.13;;;;;;;-2.40;87.60;100806.34;10539548;28;20497;-73
2023/03/01 22:54:57;;;;;;;27.10;20.40;;;;;;;-2.01;87.25;100805.88;10539851;28;20048;-73
2023/03/01 22:59:59;;;;;;;24.60;20.88;;;;;;;-2.29;87.22;100803.28;10538686;28;20036;-72